Aviation Digital Data Service (ADDS)

Output produced by METARs form (1603 UTC 23 January 2019)
found at http://www.aviationweather.gov/metar/data/
 
METAR text: LYPG 231600Z 33006KT 9999 SCT040 BKN100 07/06 Q0995 NOSIG
Conditions at: LYPG (PODGORICA(TITOGR, CS) observed 1600 UTC 23 January 2019
Temperature: 7.0°C (45°F)
Dewpoint: 6.0°C (43°F) [RH = 93%]
Pressure (altimeter): 29.38 inches Hg (995.0 mb)
Winds: from the NNW (330 degrees) at 7 MPH (6 knots; 3.1 m/s)
Visibility: 6 or more miles (10+ km)
Ceiling: 10000 feet AGL
Clouds: scattered clouds at 4000 feet AGL
broken clouds at 10000 feet AGL
Weather: no significant weather observed at this time

METAR text: LYPG 231530Z 32008KT 9999 FEW030 SCT034 BKN070 08/07 Q0996 NOSIG
Conditions at: LYPG (PODGORICA(TITOGR, CS) observed 1530 UTC 23 January 2019
Temperature: 8.0°C (46°F)
Dewpoint: 7.0°C (45°F) [RH = 93%]
Pressure (altimeter): 29.41 inches Hg (996.0 mb)
Winds: from the NW (320 degrees) at 9 MPH (8 knots; 4.1 m/s)
Visibility: 6 or more miles (10+ km)
Ceiling: 7000 feet AGL
Clouds: few clouds at 3000 feet AGL
scattered clouds at 3400 feet AGL
broken clouds at 7000 feet AGL
Weather: no significant weather observed at this time

METAR text: LYPG 231500Z 33008KT 9999 FEW030 SCT034 BKN070 08/07 Q0997 NOSIG
Conditions at: LYPG (PODGORICA(TITOGR, CS) observed 1500 UTC 23 January 2019
Temperature: 8.0°C (46°F)
Dewpoint: 7.0°C (45°F) [RH = 93%]
Pressure (altimeter): 29.44 inches Hg (997.0 mb)
Winds: from the NNW (330 degrees) at 9 MPH (8 knots; 4.1 m/s)
Visibility: 6 or more miles (10+ km)
Ceiling: 7000 feet AGL
Clouds: few clouds at 3000 feet AGL
scattered clouds at 3400 feet AGL
broken clouds at 7000 feet AGL
Weather: no significant weather observed at this time

METAR text: LYPG 231430Z 33007KT 9999 FEW030 SCT034 OVC070 08/07 Q0997 NOSIG
Conditions at: LYPG (PODGORICA(TITOGR, CS) observed 1430 UTC 23 January 2019
Temperature: 8.0°C (46°F)
Dewpoint: 7.0°C (45°F) [RH = 93%]
Pressure (altimeter): 29.44 inches Hg (997.0 mb)
Winds: from the NNW (330 degrees) at 8 MPH (7 knots; 3.6 m/s)
Visibility: 6 or more miles (10+ km)
Ceiling: 7000 feet AGL
Clouds: few clouds at 3000 feet AGL
scattered clouds at 3400 feet AGL
overcast cloud deck at 7000 feet AGL
Weather: no significant weather observed at this time

METAR text: LYPG 231400Z 34007KT 9999 FEW030 SCT034 OVC070 08/07 Q0998 NOSIG
Conditions at: LYPG (PODGORICA(TITOGR, CS) observed 1400 UTC 23 January 2019
Temperature: 8.0°C (46°F)
Dewpoint: 7.0°C (45°F) [RH = 93%]
Pressure (altimeter): 29.47 inches Hg (998.0 mb)
Winds: from the NNW (340 degrees) at 8 MPH (7 knots; 3.6 m/s)
Visibility: 6 or more miles (10+ km)
Ceiling: 7000 feet AGL
Clouds: few clouds at 3000 feet AGL
scattered clouds at 3400 feet AGL
overcast cloud deck at 7000 feet AGL
Weather: no significant weather observed at this time

METAR text: LYPG 231330Z 31005KT 9999 FEW030 SCT034 OVC070 08/07 Q0998 NOSIG
Conditions at: LYPG (PODGORICA(TITOGR, CS) observed 1330 UTC 23 January 2019
Temperature: 8.0°C (46°F)
Dewpoint: 7.0°C (45°F) [RH = 93%]
Pressure (altimeter): 29.47 inches Hg (998.0 mb)
Winds: from the NW (310 degrees) at 6 MPH (5 knots; 2.6 m/s)
Visibility: 6 or more miles (10+ km)
Ceiling: 7000 feet AGL
Clouds: few clouds at 3000 feet AGL
scattered clouds at 3400 feet AGL
overcast cloud deck at 7000 feet AGL
Weather: no significant weather observed at this time

METAR text: LYPG 231300Z 30006KT 9999 FEW030 SCT034 OVC070 08/07 Q0998 NOSIG
Conditions at: LYPG (PODGORICA(TITOGR, CS) observed 1300 UTC 23 January 2019
Temperature: 8.0°C (46°F)
Dewpoint: 7.0°C (45°F) [RH = 93%]
Pressure (altimeter): 29.47 inches Hg (998.0 mb)
Winds: from the WNW (300 degrees) at 7 MPH (6 knots; 3.1 m/s)
Visibility: 6 or more miles (10+ km)
Ceiling: 7000 feet AGL
Clouds: few clouds at 3000 feet AGL
scattered clouds at 3400 feet AGL
overcast cloud deck at 7000 feet AGL
Weather: no significant weather observed at this time

METAR text: LYPG 231230Z VRB01KT 9999 FEW030 SCT034 OVC070 08/07 Q0999 NOSIG
Conditions at: LYPG (PODGORICA(TITOGR, CS) observed 1230 UTC 23 January 2019
Temperature: 8.0°C (46°F)
Dewpoint: 7.0°C (45°F) [RH = 93%]
Pressure (altimeter): 29.50 inches Hg (999.0 mb)
Winds: variable direction winds at 1 MPH (1 knots; 0.5 m/s)
Visibility: 6 or more miles (10+ km)
Ceiling: 7000 feet AGL
Clouds: few clouds at 3000 feet AGL
scattered clouds at 3400 feet AGL
overcast cloud deck at 7000 feet AGL
Weather: no significant weather observed at this time

METAR text: LYPG 231200Z 13004KT 070V150 9999 -RA FEW030TCU SCT034 BKN070 08/07 Q0999 NOSIG
Conditions at: LYPG (PODGORICA(TITOGR, CS) observed 1200 UTC 23 January 2019
Temperature: 8.0°C (46°F)
Dewpoint: 7.0°C (45°F) [RH = 93%]
Pressure (altimeter): 29.50 inches Hg (999.0 mb)
Winds: from the SE (130 degrees) at 5 MPH (4 knots; 2.1 m/s)
Visibility: 6 or more miles (10+ km)
Ceiling: 7000 feet AGL
Clouds: few clouds at 3000 feet AGL
scattered clouds at 3400 feet AGL
broken clouds at 7000 feet AGL
Weather: -RA  (light rain)

METAR text: LYPG 231130Z 22003KT 140V270 9999 -RA SCT027TCU SCT034 08/07 Q0999 TEMPO TSRA FEW027CB BKN034
Conditions at: LYPG (PODGORICA(TITOGR, CS) observed 1130 UTC 23 January 2019
Temperature: 8.0°C (46°F)
Dewpoint: 7.0°C (45°F) [RH = 93%]
Pressure (altimeter): 29.50 inches Hg (999.0 mb)
Winds: from the SW (220 degrees) at 3 MPH (3 knots; 1.5 m/s)
Visibility: 6 or more miles (10+ km)
Ceiling: at least 12,000 feet AGL
Clouds: scattered clouds at 2700 feet AGL
scattered clouds at 3400 feet AGL
Weather: -RA  (light rain)

METAR text: LYPG 231100Z 16009KT 9999 SCT027TCU SCT034 08/07 Q1000 TEMPO TSRA FEW027CB BKN034
Conditions at: LYPG (PODGORICA(TITOGR, CS) observed 1100 UTC 23 January 2019
Temperature: 8.0°C (46°F)
Dewpoint: 7.0°C (45°F) [RH = 93%]
Pressure (altimeter): 29.53 inches Hg (1000.0 mb)
Winds: from the SSE (160 degrees) at 10 MPH (9 knots; 4.6 m/s)
Visibility: 6 or more miles (10+ km)
Ceiling: at least 12,000 feet AGL
Clouds: scattered clouds at 2700 feet AGL
scattered clouds at 3400 feet AGL
Weather: no significant weather observed at this time

METAR text: LYPG 231030Z 14011KT 120V180 9999 BKN027 10/08 Q1000 NOSIG
Conditions at: LYPG (PODGORICA(TITOGR, CS) observed 1030 UTC 23 January 2019
Temperature: 10.0°C (50°F)
Dewpoint: 8.0°C (46°F) [RH = 87%]
Pressure (altimeter): 29.53 inches Hg (1000.0 mb)
Winds: from the SE (140 degrees) at 13 MPH (11 knots; 5.7 m/s)
Visibility: 6 or more miles (10+ km)
Ceiling: 2700 feet AGL
Clouds: broken clouds at 2700 feet AGL
Weather: no significant weather observed at this time

METAR text: LYPG 231000Z 15010KT 9999 BKN027 09/08 Q1001 NOSIG
Conditions at: LYPG (PODGORICA(TITOGR, CS) observed 1000 UTC 23 January 2019
Temperature: 9.0°C (48°F)
Dewpoint: 8.0°C (46°F) [RH = 93%]
Pressure (altimeter): 29.56 inches Hg (1001.0 mb)
Winds: from the SSE (150 degrees) at 12 MPH (10 knots; 5.1 m/s)
Visibility: 6 or more miles (10+ km)
Ceiling: 2700 feet AGL
Clouds: broken clouds at 2700 feet AGL
Weather: no significant weather observed at this time

METAR text: LYPG 230930Z 11005KT 070V140 9999 BKN027 09/09 Q1001 NOSIG
Conditions at: LYPG (PODGORICA(TITOGR, CS) observed 0930 UTC 23 January 2019
Temperature: 9.0°C (48°F)
Dewpoint: 9.0°C (48°F) [RH = 100%]
Pressure (altimeter): 29.56 inches Hg (1001.0 mb)
Winds: from the ESE (110 degrees) at 6 MPH (5 knots; 2.6 m/s)
Visibility: 6 or more miles (10+ km)
Ceiling: 2700 feet AGL
Clouds: broken clouds at 2700 feet AGL
Weather: no significant weather observed at this time

METAR text: LYPG 230900Z VRB02KT 9999 BKN027 08/08 Q1001 NOSIG
Conditions at: LYPG (PODGORICA(TITOGR, CS) observed 0900 UTC 23 January 2019
Temperature: 8.0°C (46°F)
Dewpoint: 8.0°C (46°F) [RH = 100%]
Pressure (altimeter): 29.56 inches Hg (1001.0 mb)
Winds: variable direction winds at 2 MPH (2 knots; 1.0 m/s)
Visibility: 6 or more miles (10+ km)
Ceiling: 2700 feet AGL
Clouds: broken clouds at 2700 feet AGL
Weather: no significant weather observed at this time

METAR text: LYPG 230830Z VRB01KT 9999 BKN027 08/08 Q1001 NOSIG
Conditions at: LYPG (PODGORICA(TITOGR, CS) observed 0830 UTC 23 January 2019
Temperature: 8.0°C (46°F)
Dewpoint: 8.0°C (46°F) [RH = 100%]
Pressure (altimeter): 29.56 inches Hg (1001.0 mb)
Winds: variable direction winds at 1 MPH (1 knots; 0.5 m/s)
Visibility: 6 or more miles (10+ km)
Ceiling: 2700 feet AGL
Clouds: broken clouds at 2700 feet AGL
Weather: no significant weather observed at this time

METAR text: LYPG 230800Z 29003KT 9999 BKN027 08/08 Q1001 NOSIG
Conditions at: LYPG (PODGORICA(TITOGR, CS) observed 0800 UTC 23 January 2019
Temperature: 8.0°C (46°F)
Dewpoint: 8.0°C (46°F) [RH = 100%]
Pressure (altimeter): 29.56 inches Hg (1001.0 mb)
Winds: from the WNW (290 degrees) at 3 MPH (3 knots; 1.5 m/s)
Visibility: 6 or more miles (10+ km)
Ceiling: 2700 feet AGL
Clouds: broken clouds at 2700 feet AGL
Weather: no significant weather observed at this time

METAR text: LYPG 230730Z 34003KT 9999 SCT027 07/07 Q1001 NOSIG
Conditions at: LYPG (PODGORICA(TITOGR, CS) observed 0730 UTC 23 January 2019
Temperature: 7.0°C (45°F)
Dewpoint: 7.0°C (45°F) [RH = 100%]
Pressure (altimeter): 29.56 inches Hg (1001.0 mb)
Winds: from the NNW (340 degrees) at 3 MPH (3 knots; 1.5 m/s)
Visibility: 6 or more miles (10+ km)
Ceiling: at least 12,000 feet AGL
Clouds: scattered clouds at 2700 feet AGL
Weather: no significant weather observed at this time

METAR text: LYPG 230700Z 34003KT 1000 R18/0650N R36/0600D BR FEW010 SCT030 05/05 Q1002 TEMPO 0800 FG
Conditions at: LYPG (PODGORICA(TITOGR, CS) observed 0700 UTC 23 January 2019
Temperature: 5.0°C (41°F)
Dewpoint: 5.0°C (41°F) [RH = 100%]
Pressure (altimeter): 29.59 inches Hg (1002.0 mb)
Winds: from the NNW (340 degrees) at 3 MPH (3 knots; 1.5 m/s)
Visibility: 0.62 miles (1.00 km)
Ceiling: at least 12,000 feet AGL
Clouds: few clouds at 1000 feet AGL
scattered clouds at 3000 feet AGL
Weather: BR  (mist)

METAR text: LYPG 230630Z VRB02KT 0300 R18/0400D R36/0350N FG FEW010 SCT030 05/05 Q1002 NOSIG
Conditions at: LYPG (PODGORICA(TITOGR, CS) observed 0630 UTC 23 January 2019
Temperature: 5.0°C (41°F)
Dewpoint: 5.0°C (41°F) [RH = 100%]
Pressure (altimeter): 29.59 inches Hg (1002.0 mb)
Winds: variable direction winds at 2 MPH (2 knots; 1.0 m/s)
Visibility: 0.19 miles (0.31 km)
Ceiling: at least 12,000 feet AGL
Clouds: few clouds at 1000 feet AGL
scattered clouds at 3000 feet AGL
Weather: FG  (fog)

METAR text: LYPG 230600Z VRB01KT 6000 FEW010 SCT030 SCT040 06/06 Q1002 NOSIG
Conditions at: LYPG (PODGORICA(TITOGR, CS) observed 0600 UTC 23 January 2019
Temperature: 6.0°C (43°F)
Dewpoint: 6.0°C (43°F) [RH = 100%]
Pressure (altimeter): 29.59 inches Hg (1002.0 mb)
Winds: variable direction winds at 1 MPH (1 knots; 0.5 m/s)
Visibility: 4 miles ( 6 km)
Ceiling: at least 12,000 feet AGL
Clouds: few clouds at 1000 feet AGL
scattered clouds at 3000 feet AGL
scattered clouds at 4000 feet AGL
Weather: no significant weather observed at this time

METAR text: LYPG 230530Z VRB01KT 9999 FEW010 SCT027 BKN040 06/06 Q1002 NOSIG
Conditions at: LYPG (PODGORICA(TITOGR, CS) observed 0530 UTC 23 January 2019
Temperature: 6.0°C (43°F)
Dewpoint: 6.0°C (43°F) [RH = 100%]
Pressure (altimeter): 29.59 inches Hg (1002.0 mb)
Winds: variable direction winds at 1 MPH (1 knots; 0.5 m/s)
Visibility: 6 or more miles (10+ km)
Ceiling: 4000 feet AGL
Clouds: few clouds at 1000 feet AGL
scattered clouds at 2700 feet AGL
broken clouds at 4000 feet AGL
Weather: no significant weather observed at this time

METAR text: LYPG 230500Z 34003KT 310V020 9999 -RA FEW010 SCT027 BKN040 06/06 Q1002 RETS NOSIG
Conditions at: LYPG (PODGORICA(TITOGR, CS) observed 0500 UTC 23 January 2019
Temperature: 6.0°C (43°F)
Dewpoint: 6.0°C (43°F) [RH = 100%]
Pressure (altimeter): 29.59 inches Hg (1002.0 mb)
Winds: from the NNW (340 degrees) at 3 MPH (3 knots; 1.5 m/s)
Visibility: 6 or more miles (10+ km)
Ceiling: 4000 feet AGL
Clouds: few clouds at 1000 feet AGL
scattered clouds at 2700 feet AGL
broken clouds at 4000 feet AGL
Weather: -RA  (light rain)

METAR text: LYPG 230430Z 31003KT 280V010 7000 TSRA FEW027 SCT030CB BKN040 05/05 Q1002 NOSIG
Conditions at: LYPG (PODGORICA(TITOGR, CS) observed 0430 UTC 23 January 2019
Temperature: 5.0°C (41°F)
Dewpoint: 5.0°C (41°F) [RH = 100%]
Pressure (altimeter): 29.59 inches Hg (1002.0 mb)
Winds: from the NW (310 degrees) at 3 MPH (3 knots; 1.5 m/s)
Visibility: 4 miles ( 7 km)
Ceiling: 4000 feet AGL
Clouds: few clouds at 2700 feet AGL
scattered clouds at 3000 feet AGL
broken clouds at 4000 feet AGL
Weather: TSRA  (rain associated with thunderstorm(s))

METAR text: LYPG 230400Z 35004KT 310V060 7000 RA SCT027 BKN040 OVC070 06/06 Q1002 NOSIG
Conditions at: LYPG (PODGORICA(TITOGR, CS) observed 0400 UTC 23 January 2019
Temperature: 6.0°C (43°F)
Dewpoint: 6.0°C (43°F) [RH = 100%]
Pressure (altimeter): 29.59 inches Hg (1002.0 mb)
Winds: from the N (350 degrees) at 5 MPH (4 knots; 2.1 m/s)
Visibility: 4 miles ( 7 km)
Ceiling: 4000 feet AGL
Clouds: scattered clouds at 2700 feet AGL
broken clouds at 4000 feet AGL
overcast cloud deck at 7000 feet AGL
Weather: RA  (moderate rain)

METAR text: LYPG 230330Z 31003KT 270V340 9999 -RA SCT027 BKN040 OVC070 06/06 Q1002 RERA NOSIG
Conditions at: LYPG (PODGORICA(TITOGR, CS) observed 0330 UTC 23 January 2019
Temperature: 6.0°C (43°F)
Dewpoint: 6.0°C (43°F) [RH = 100%]
Pressure (altimeter): 29.59 inches Hg (1002.0 mb)
Winds: from the NW (310 degrees) at 3 MPH (3 knots; 1.5 m/s)
Visibility: 6 or more miles (10+ km)
Ceiling: 4000 feet AGL
Clouds: scattered clouds at 2700 feet AGL
broken clouds at 4000 feet AGL
overcast cloud deck at 7000 feet AGL
Weather: -RA  (light rain)

METAR text: LYPG 230300Z 28004KT 230V350 9999 -RA FEW027 SCT040 BKN080 05/05 Q1002 NOSIG
Conditions at: LYPG (PODGORICA(TITOGR, CS) observed 0300 UTC 23 January 2019
Temperature: 5.0°C (41°F)
Dewpoint: 5.0°C (41°F) [RH = 100%]
Pressure (altimeter): 29.59 inches Hg (1002.0 mb)
Winds: from the W (280 degrees) at 5 MPH (4 knots; 2.1 m/s)
Visibility: 6 or more miles (10+ km)
Ceiling: 8000 feet AGL
Clouds: few clouds at 2700 feet AGL
scattered clouds at 4000 feet AGL
broken clouds at 8000 feet AGL
Weather: -RA  (light rain)

METAR text: LYPG 230230Z VRB01KT 9999 -RA FEW027 SCT040 BKN080 06/06 Q1002 NOSIG
Conditions at: LYPG (PODGORICA(TITOGR, CS) observed 0230 UTC 23 January 2019
Temperature: 6.0°C (43°F)
Dewpoint: 6.0°C (43°F) [RH = 100%]
Pressure (altimeter): 29.59 inches Hg (1002.0 mb)
Winds: variable direction winds at 1 MPH (1 knots; 0.5 m/s)
Visibility: 6 or more miles (10+ km)
Ceiling: 8000 feet AGL
Clouds: few clouds at 2700 feet AGL
scattered clouds at 4000 feet AGL
broken clouds at 8000 feet AGL
Weather: -RA  (light rain)

METAR text: LYPG 230200Z VRB02KT 7000 -RA FEW027 SCT040 BKN080 06/06 Q1002 NOSIG
Conditions at: LYPG (PODGORICA(TITOGR, CS) observed 0200 UTC 23 January 2019
Temperature: 6.0°C (43°F)
Dewpoint: 6.0°C (43°F) [RH = 100%]
Pressure (altimeter): 29.59 inches Hg (1002.0 mb)
Winds: variable direction winds at 2 MPH (2 knots; 1.0 m/s)
Visibility: 4 miles ( 7 km)
Ceiling: 8000 feet AGL
Clouds: few clouds at 2700 feet AGL
scattered clouds at 4000 feet AGL
broken clouds at 8000 feet AGL
Weather: -RA  (light rain)

METAR text: LYPG 230130Z VRB02KT 9999 -RA FEW027 BKN040 OVC080 06/06 Q1002 NOSIG
Conditions at: LYPG (PODGORICA(TITOGR, CS) observed 0130 UTC 23 January 2019
Temperature: 6.0°C (43°F)
Dewpoint: 6.0°C (43°F) [RH = 100%]
Pressure (altimeter): 29.59 inches Hg (1002.0 mb)
Winds: variable direction winds at 2 MPH (2 knots; 1.0 m/s)
Visibility: 6 or more miles (10+ km)
Ceiling: 4000 feet AGL
Clouds: few clouds at 2700 feet AGL
broken clouds at 4000 feet AGL
overcast cloud deck at 8000 feet AGL
Weather: -RA  (light rain)

METAR text: LYPG 230100Z 35006KT 9999 -RA FEW030 SCT040 OVC090 06/06 Q1003 NOSIG
Conditions at: LYPG (PODGORICA(TITOGR, CS) observed 0100 UTC 23 January 2019
Temperature: 6.0°C (43°F)
Dewpoint: 6.0°C (43°F) [RH = 100%]
Pressure (altimeter): 29.62 inches Hg (1003.0 mb)
Winds: from the N (350 degrees) at 7 MPH (6 knots; 3.1 m/s)
Visibility: 6 or more miles (10+ km)
Ceiling: 9000 feet AGL
Clouds: few clouds at 3000 feet AGL
scattered clouds at 4000 feet AGL
overcast cloud deck at 9000 feet AGL
Weather: -RA  (light rain)

METAR text: LYPG 230030Z 02004KT 9999 FEW030 SCT040 BKN090 06/06 Q1003 NOSIG
Conditions at: LYPG (PODGORICA(TITOGR, CS) observed 0030 UTC 23 January 2019
Temperature: 6.0°C (43°F)
Dewpoint: 6.0°C (43°F) [RH = 100%]
Pressure (altimeter): 29.62 inches Hg (1003.0 mb)
Winds: from the NNE (20 degrees) at 5 MPH (4 knots; 2.1 m/s)
Visibility: 6 or more miles (10+ km)
Ceiling: 9000 feet AGL
Clouds: few clouds at 3000 feet AGL
scattered clouds at 4000 feet AGL
broken clouds at 9000 feet AGL
Weather: no significant weather observed at this time

METAR text: LYPG 230000Z 02004KT 9999 FEW030 SCT040 BKN090 05/05 Q1003 NOSIG
Conditions at: LYPG (PODGORICA(TITOGR, CS) observed 0000 UTC 23 January 2019
Temperature: 5.0°C (41°F)
Dewpoint: 5.0°C (41°F) [RH = 100%]
Pressure (altimeter): 29.62 inches Hg (1003.0 mb)
Winds: from the NNE (20 degrees) at 5 MPH (4 knots; 2.1 m/s)
Visibility: 6 or more miles (10+ km)
Ceiling: 9000 feet AGL
Clouds: few clouds at 3000 feet AGL
scattered clouds at 4000 feet AGL
broken clouds at 9000 feet AGL
Weather: no significant weather observed at this time

METAR text: LYPG 222330Z 33004KT 9999 FEW030 SCT050 BKN090 06/06 Q1004 NOSIG
Conditions at: LYPG (PODGORICA(TITOGR, CS) observed 2330 UTC 22 January 2019
Temperature: 6.0°C (43°F)
Dewpoint: 6.0°C (43°F) [RH = 100%]
Pressure (altimeter): 29.65 inches Hg (1004.0 mb)
Winds: from the NNW (330 degrees) at 5 MPH (4 knots; 2.1 m/s)
Visibility: 6 or more miles (10+ km)
Ceiling: 9000 feet AGL
Clouds: few clouds at 3000 feet AGL
scattered clouds at 5000 feet AGL
broken clouds at 9000 feet AGL
Weather: no significant weather observed at this time

METAR text: LYPG 222300Z 34005KT 9999 FEW030 SCT090 06/06 Q1004 NOSIG
Conditions at: LYPG (PODGORICA(TITOGR, CS) observed 2300 UTC 22 January 2019
Temperature: 6.0°C (43°F)
Dewpoint: 6.0°C (43°F) [RH = 100%]
Pressure (altimeter): 29.65 inches Hg (1004.0 mb)
Winds: from the NNW (340 degrees) at 6 MPH (5 knots; 2.6 m/s)
Visibility: 6 or more miles (10+ km)
Ceiling: at least 12,000 feet AGL
Clouds: few clouds at 3000 feet AGL
scattered clouds at 9000 feet AGL
Weather: no significant weather observed at this time

METAR text: LYPG 222230Z 34006KT 9999 FEW010 SCT040 BKN080 07/07 Q1004 NOSIG
Conditions at: LYPG (PODGORICA(TITOGR, CS) observed 2230 UTC 22 January 2019
Temperature: 7.0°C (45°F)
Dewpoint: 7.0°C (45°F) [RH = 100%]
Pressure (altimeter): 29.65 inches Hg (1004.0 mb)
Winds: from the NNW (340 degrees) at 7 MPH (6 knots; 3.1 m/s)
Visibility: 6 or more miles (10+ km)
Ceiling: 8000 feet AGL
Clouds: few clouds at 1000 feet AGL
scattered clouds at 4000 feet AGL
broken clouds at 8000 feet AGL
Weather: no significant weather observed at this time

METAR text: LYPG 222200Z 29002KT 9999 -RA FEW010 BKN030 OVC070 07/07 Q1004 RETS NOSIG
Conditions at: LYPG (PODGORICA(TITOGR, CS) observed 2200 UTC 22 January 2019
Temperature: 7.0°C (45°F)
Dewpoint: 7.0°C (45°F) [RH = 100%]
Pressure (altimeter): 29.65 inches Hg (1004.0 mb)
Winds: from the WNW (290 degrees) at 2 MPH (2 knots; 1.0 m/s)
Visibility: 6 or more miles (10+ km)
Ceiling: 3000 feet AGL
Clouds: few clouds at 1000 feet AGL
broken clouds at 3000 feet AGL
overcast cloud deck at 7000 feet AGL
Weather: -RA  (light rain)

METAR text: LYPG 222130Z 11003KT 9999 -TSRA SCT006 FEW030CB BKN040 07/07 Q1003 RERA TEMPO TSRA
Conditions at: LYPG (PODGORICA(TITOGR, CS) observed 2130 UTC 22 January 2019
Temperature: 7.0°C (45°F)
Dewpoint: 7.0°C (45°F) [RH = 100%]
Pressure (altimeter): 29.62 inches Hg (1003.0 mb)
Winds: from the ESE (110 degrees) at 3 MPH (3 knots; 1.5 m/s)
Visibility: 6 or more miles (10+ km)
Ceiling: 4000 feet AGL
Clouds: scattered clouds at 600 feet AGL
few clouds at 3000 feet AGL
broken clouds at 4000 feet AGL
Weather: -TSRA  (light rain associated with thunderstorm(s))

METAR text: LYPG 222100Z 28003KT 5000 TSRA FEW006 SCT020CB BKN030 06/06 Q1003 TEMPO 3000 +TSRA
Conditions at: LYPG (PODGORICA(TITOGR, CS) observed 2100 UTC 22 January 2019
Temperature: 6.0°C (43°F)
Dewpoint: 6.0°C (43°F) [RH = 100%]
Pressure (altimeter): 29.62 inches Hg (1003.0 mb)
Winds: from the W (280 degrees) at 3 MPH (3 knots; 1.5 m/s)
Visibility: 3 miles ( 5 km)
Ceiling: 3000 feet AGL
Clouds: few clouds at 600 feet AGL
scattered clouds at 2000 feet AGL
broken clouds at 3000 feet AGL
Weather: TSRA  (rain associated with thunderstorm(s))

METAR text: LYPG 222030Z 33003KT 280V040 4000 TSRA SCT007 SCT023CB BKN030 06/06 Q1003 TEMPO 2000 +TSRA
Conditions at: LYPG (PODGORICA(TITOGR, CS) observed 2030 UTC 22 January 2019
Temperature: 6.0°C (43°F)
Dewpoint: 6.0°C (43°F) [RH = 100%]
Pressure (altimeter): 29.62 inches Hg (1003.0 mb)
Winds: from the NNW (330 degrees) at 3 MPH (3 knots; 1.5 m/s)
Visibility: 2.49 miles (4.01 km)
Ceiling: 3000 feet AGL
Clouds: scattered clouds at 700 feet AGL
scattered clouds at 2300 feet AGL
broken clouds at 3000 feet AGL
Weather: TSRA  (rain associated with thunderstorm(s))

METAR text: LYPG 222000Z 04003KT 020V080 6000 TSRA SCT007 FEW023CB BKN030 06/06 Q1003 NOSIG
Conditions at: LYPG (PODGORICA(TITOGR, CS) observed 2000 UTC 22 January 2019
Temperature: 6.0°C (43°F)
Dewpoint: 6.0°C (43°F) [RH = 100%]
Pressure (altimeter): 29.62 inches Hg (1003.0 mb)
Winds: from the NE (40 degrees) at 3 MPH (3 knots; 1.5 m/s)
Visibility: 4 miles ( 6 km)
Ceiling: 3000 feet AGL
Clouds: scattered clouds at 700 feet AGL
few clouds at 2300 feet AGL
broken clouds at 3000 feet AGL
Weather: TSRA  (rain associated with thunderstorm(s))

METAR text: LYPG 221930Z VRB02KT 6000 TSRA FEW007 FEW023CB BKN030 06/06 Q1003 NOSIG
Conditions at: LYPG (PODGORICA(TITOGR, CS) observed 1930 UTC 22 January 2019
Temperature: 6.0°C (43°F)
Dewpoint: 6.0°C (43°F) [RH = 100%]
Pressure (altimeter): 29.62 inches Hg (1003.0 mb)
Winds: variable direction winds at 2 MPH (2 knots; 1.0 m/s)
Visibility: 4 miles ( 6 km)
Ceiling: 3000 feet AGL
Clouds: few clouds at 700 feet AGL
few clouds at 2300 feet AGL
broken clouds at 3000 feet AGL
Weather: TSRA  (rain associated with thunderstorm(s))

METAR text: LYPG 221900Z 26004KT 6000 RA SCT007 BKN030 OVC070 06/06 Q1003 TEMPO 4000 -RA BR BKN007 BKN030
Conditions at: LYPG (PODGORICA(TITOGR, CS) observed 1900 UTC 22 January 2019
Temperature: 6.0°C (43°F)
Dewpoint: 6.0°C (43°F) [RH = 100%]
Pressure (altimeter): 29.62 inches Hg (1003.0 mb)
Winds: from the W (260 degrees) at 5 MPH (4 knots; 2.1 m/s)
Visibility: 4 miles ( 6 km)
Ceiling: 3000 feet AGL
Clouds: scattered clouds at 700 feet AGL
broken clouds at 3000 feet AGL
overcast cloud deck at 7000 feet AGL
Weather: RA  (moderate rain)

METAR text: LYPG 221830Z 26003KT 230V300 7000 -RA FEW007 SCT023 BKN030 06/06 Q1003 RERA NOSIG
Conditions at: LYPG (PODGORICA(TITOGR, CS) observed 1830 UTC 22 January 2019
Temperature: 6.0°C (43°F)
Dewpoint: 6.0°C (43°F) [RH = 100%]
Pressure (altimeter): 29.62 inches Hg (1003.0 mb)
Winds: from the W (260 degrees) at 3 MPH (3 knots; 1.5 m/s)
Visibility: 4 miles ( 7 km)
Ceiling: 3000 feet AGL
Clouds: few clouds at 700 feet AGL
scattered clouds at 2300 feet AGL
broken clouds at 3000 feet AGL
Weather: -RA  (light rain)

METAR text: LYPG 221800Z 00000KT 6000 RA FEW007 SCT023 BKN030 06/06 Q1004 NOSIG
Conditions at: LYPG (PODGORICA(TITOGR, CS) observed 1800 UTC 22 January 2019
Temperature: 6.0°C (43°F)
Dewpoint: 6.0°C (43°F) [RH = 100%]
Pressure (altimeter): 29.65 inches Hg (1004.0 mb)
Winds: calm
Visibility: 4 miles ( 6 km)
Ceiling: 3000 feet AGL
Clouds: few clouds at 700 feet AGL
scattered clouds at 2300 feet AGL
broken clouds at 3000 feet AGL
Weather: RA  (moderate rain)

METAR text: LYPG 221730Z VRB02KT 6000 RA FEW007 SCT023 BKN030 06/06 Q1004 NOSIG
Conditions at: LYPG (PODGORICA(TITOGR, CS) observed 1730 UTC 22 January 2019
Temperature: 6.0°C (43°F)
Dewpoint: 6.0°C (43°F) [RH = 100%]
Pressure (altimeter): 29.65 inches Hg (1004.0 mb)
Winds: variable direction winds at 2 MPH (2 knots; 1.0 m/s)
Visibility: 4 miles ( 6 km)
Ceiling: 3000 feet AGL
Clouds: few clouds at 700 feet AGL
scattered clouds at 2300 feet AGL
broken clouds at 3000 feet AGL
Weather: RA  (moderate rain)

METAR text: LYPG 221700Z VRB02KT 6000 RA FEW010 SCT020 BKN030 06/06 Q1004 NOSIG
Conditions at: LYPG (PODGORICA(TITOGR, CS) observed 1700 UTC 22 January 2019
Temperature: 6.0°C (43°F)
Dewpoint: 6.0°C (43°F) [RH = 100%]
Pressure (altimeter): 29.65 inches Hg (1004.0 mb)
Winds: variable direction winds at 2 MPH (2 knots; 1.0 m/s)
Visibility: 4 miles ( 6 km)
Ceiling: 3000 feet AGL
Clouds: few clouds at 1000 feet AGL
scattered clouds at 2000 feet AGL
broken clouds at 3000 feet AGL
Weather: RA  (moderate rain)

METAR text: LYPG 221630Z 20003KT 6000 RA FEW007 SCT020 BKN030 06/06 Q1004 NOSIG
Conditions at: LYPG (PODGORICA(TITOGR, CS) observed 1630 UTC 22 January 2019
Temperature: 6.0°C (43°F)
Dewpoint: 6.0°C (43°F) [RH = 100%]
Pressure (altimeter): 29.65 inches Hg (1004.0 mb)
Winds: from the SSW (200 degrees) at 3 MPH (3 knots; 1.5 m/s)
Visibility: 4 miles ( 6 km)
Ceiling: 3000 feet AGL
Clouds: few clouds at 700 feet AGL
scattered clouds at 2000 feet AGL
broken clouds at 3000 feet AGL
Weather: RA  (moderate rain)

METAR text: LYPG 221600Z VRB02KT 4000 -RA BR FEW010 SCT017 BKN030 06/06 Q1004 RERA NOSIG
Conditions at: LYPG (PODGORICA(TITOGR, CS) observed 1600 UTC 22 January 2019
Temperature: 6.0°C (43°F)
Dewpoint: 6.0°C (43°F) [RH = 100%]
Pressure (altimeter): 29.65 inches Hg (1004.0 mb)
Winds: variable direction winds at 2 MPH (2 knots; 1.0 m/s)
Visibility: 2.49 miles (4.01 km)
Ceiling: 3000 feet AGL
Clouds: few clouds at 1000 feet AGL
scattered clouds at 1700 feet AGL
broken clouds at 3000 feet AGL
Weather: -RA BR  (light rain, mist)

METAR text: LYPG 221530Z 23004KT 200V260 1500 RA BR FEW013 SCT017 BKN027 06/06 Q1005 NOSIG
Conditions at: LYPG (PODGORICA(TITOGR, CS) observed 1530 UTC 22 January 2019
Temperature: 6.0°C (43°F)
Dewpoint: 6.0°C (43°F) [RH = 100%]
Pressure (altimeter): 29.68 inches Hg (1005.0 mb)
Winds: from the SW (230 degrees) at 5 MPH (4 knots; 2.1 m/s)
Visibility: 0.93 miles (1.50 km)
Ceiling: 2700 feet AGL
Clouds: few clouds at 1300 feet AGL
scattered clouds at 1700 feet AGL
broken clouds at 2700 feet AGL
Weather: RA BR  (moderate rain, mist)

METAR text: LYPG 221500Z VRB02KT 1700 RA BR SCT014 BKN026 OVC070 07/07 Q1005 NOSIG
Conditions at: LYPG (PODGORICA(TITOGR, CS) observed 1500 UTC 22 January 2019
Temperature: 7.0°C (45°F)
Dewpoint: 7.0°C (45°F) [RH = 100%]
Pressure (altimeter): 29.68 inches Hg (1005.0 mb)
Winds: variable direction winds at 2 MPH (2 knots; 1.0 m/s)
Visibility: 1.06 miles (1.71 km)
Ceiling: 2600 feet AGL
Clouds: scattered clouds at 1400 feet AGL
broken clouds at 2600 feet AGL
overcast cloud deck at 7000 feet AGL
Weather: RA BR  (moderate rain, mist)

METAR text: LYPG 221430Z VRB01KT 1700 RA BR SCT016 BKN027 OVC070 07/07 Q1005 NOSIG
Conditions at: LYPG (PODGORICA(TITOGR, CS) observed 1430 UTC 22 January 2019
Temperature: 7.0°C (45°F)
Dewpoint: 7.0°C (45°F) [RH = 100%]
Pressure (altimeter): 29.68 inches Hg (1005.0 mb)
Winds: variable direction winds at 1 MPH (1 knots; 0.5 m/s)
Visibility: 1.06 miles (1.71 km)
Ceiling: 2700 feet AGL
Clouds: scattered clouds at 1600 feet AGL
broken clouds at 2700 feet AGL
overcast cloud deck at 7000 feet AGL
Weather: RA BR  (moderate rain, mist)

METAR text: LYPG 221400Z VRB02KT 2000 -RA BR SCT014 BKN027 OVC070 07/07 Q1006 RERA NOSIG
Conditions at: LYPG (PODGORICA(TITOGR, CS) observed 1400 UTC 22 January 2019
Temperature: 7.0°C (45°F)
Dewpoint: 7.0°C (45°F) [RH = 100%]
Pressure (altimeter): 29.70 inches Hg (1006.0 mb)
Winds: variable direction winds at 2 MPH (2 knots; 1.0 m/s)
Visibility: 1.24 miles (2.00 km)
Ceiling: 2700 feet AGL
Clouds: scattered clouds at 1400 feet AGL
broken clouds at 2700 feet AGL
overcast cloud deck at 7000 feet AGL
Weather: -RA BR  (light rain, mist)

METAR text: LYPG 221330Z VRB02KT 3000 RA BR SCT014 BKN030 OVC070 07/07 Q1006 NOSIG
Conditions at: LYPG (PODGORICA(TITOGR, CS) observed 1330 UTC 22 January 2019
Temperature: 7.0°C (45°F)
Dewpoint: 7.0°C (45°F) [RH = 100%]
Pressure (altimeter): 29.70 inches Hg (1006.0 mb)
Winds: variable direction winds at 2 MPH (2 knots; 1.0 m/s)
Visibility: 1.86 miles (2.99 km)
Ceiling: 3000 feet AGL
Clouds: scattered clouds at 1400 feet AGL
broken clouds at 3000 feet AGL
overcast cloud deck at 7000 feet AGL
Weather: RA BR  (moderate rain, mist)

METAR text: LYPG 221300Z VRB01KT 4000 RA BR FEW007 SCT016 BKN033 07/07 Q1006 NOSIG
Conditions at: LYPG (PODGORICA(TITOGR, CS) observed 1300 UTC 22 January 2019
Temperature: 7.0°C (45°F)
Dewpoint: 7.0°C (45°F) [RH = 100%]
Pressure (altimeter): 29.70 inches Hg (1006.0 mb)
Winds: variable direction winds at 1 MPH (1 knots; 0.5 m/s)
Visibility: 2.49 miles (4.01 km)
Ceiling: 3300 feet AGL
Clouds: few clouds at 700 feet AGL
scattered clouds at 1600 feet AGL
broken clouds at 3300 feet AGL
Weather: RA BR  (moderate rain, mist)

METAR text: LYPG 221230Z VRB01KT 4000 RA BR SCT010 BKN030 OVC070 06/06 Q1007 NOSIG
Conditions at: LYPG (PODGORICA(TITOGR, CS) observed 1230 UTC 22 January 2019
Temperature: 6.0°C (43°F)
Dewpoint: 6.0°C (43°F) [RH = 100%]
Pressure (altimeter): 29.73 inches Hg (1007.0 mb)
Winds: variable direction winds at 1 MPH (1 knots; 0.5 m/s)
Visibility: 2.49 miles (4.01 km)
Ceiling: 3000 feet AGL
Clouds: scattered clouds at 1000 feet AGL
broken clouds at 3000 feet AGL
overcast cloud deck at 7000 feet AGL
Weather: RA BR  (moderate rain, mist)

METAR text: LYPG 221200Z VRB02KT 5000 RA BR SCT010 BKN030 OVC070 06/06 Q1008 NOSIG
Conditions at: LYPG (PODGORICA(TITOGR, CS) observed 1200 UTC 22 January 2019
Temperature: 6.0°C (43°F)
Dewpoint: 6.0°C (43°F) [RH = 100%]
Pressure (altimeter): 29.76 inches Hg (1008.0 mb)
Winds: variable direction winds at 2 MPH (2 knots; 1.0 m/s)
Visibility: 3 miles ( 5 km)
Ceiling: 3000 feet AGL
Clouds: scattered clouds at 1000 feet AGL
broken clouds at 3000 feet AGL
overcast cloud deck at 7000 feet AGL
Weather: RA BR  (moderate rain, mist)

METAR text: LYPG 221130Z 00000KT 5000 RA BR SCT010 BKN030 OVC070 06/06 Q1008 NOSIG
Conditions at: LYPG (PODGORICA(TITOGR, CS) observed 1130 UTC 22 January 2019
Temperature: 6.0°C (43°F)
Dewpoint: 6.0°C (43°F) [RH = 100%]
Pressure (altimeter): 29.76 inches Hg (1008.0 mb)
Winds: calm
Visibility: 3 miles ( 5 km)
Ceiling: 3000 feet AGL
Clouds: scattered clouds at 1000 feet AGL
broken clouds at 3000 feet AGL
overcast cloud deck at 7000 feet AGL
Weather: RA BR  (moderate rain, mist)

METAR text: LYPG 221100Z VRB01KT 5000 RA BR SCT007 BKN030 OVC070 06/06 Q1009 NOSIG
Conditions at: LYPG (PODGORICA(TITOGR, CS) observed 1100 UTC 22 January 2019
Temperature: 6.0°C (43°F)
Dewpoint: 6.0°C (43°F) [RH = 100%]
Pressure (altimeter): 29.79 inches Hg (1009.0 mb)
Winds: variable direction winds at 1 MPH (1 knots; 0.5 m/s)
Visibility: 3 miles ( 5 km)
Ceiling: 3000 feet AGL
Clouds: scattered clouds at 700 feet AGL
broken clouds at 3000 feet AGL
overcast cloud deck at 7000 feet AGL
Weather: RA BR  (moderate rain, mist)

METAR text: LYPG 221030Z VRB01KT 4000 -RA BR SCT007 BKN030 OVC070 06/06 Q1009 NOSIG
Conditions at: LYPG (PODGORICA(TITOGR, CS) observed 1030 UTC 22 January 2019
Temperature: 6.0°C (43°F)
Dewpoint: 6.0°C (43°F) [RH = 100%]
Pressure (altimeter): 29.79 inches Hg (1009.0 mb)
Winds: variable direction winds at 1 MPH (1 knots; 0.5 m/s)
Visibility: 2.49 miles (4.01 km)
Ceiling: 3000 feet AGL
Clouds: scattered clouds at 700 feet AGL
broken clouds at 3000 feet AGL
overcast cloud deck at 7000 feet AGL
Weather: -RA BR  (light rain, mist)

METAR text: LYPG 221000Z VRB01KT 2500 -RA BR SCT007 BKN030 OVC070 06/06 Q1010 NOSIG
Conditions at: LYPG (PODGORICA(TITOGR, CS) observed 1000 UTC 22 January 2019
Temperature: 6.0°C (43°F)
Dewpoint: 6.0°C (43°F) [RH = 100%]
Pressure (altimeter): 29.82 inches Hg (1010.0 mb)
Winds: variable direction winds at 1 MPH (1 knots; 0.5 m/s)
Visibility: 1.55 miles (2.49 km)
Ceiling: 3000 feet AGL
Clouds: scattered clouds at 700 feet AGL
broken clouds at 3000 feet AGL
overcast cloud deck at 7000 feet AGL
Weather: -RA BR  (light rain, mist)

METAR text: LYPG 220930Z 32002KT 2500 -RA BR SCT010 BKN030 OVC070 06/06 Q1010 RERA NOSIG
Conditions at: LYPG (PODGORICA(TITOGR, CS) observed 0930 UTC 22 January 2019
Temperature: 6.0°C (43°F)
Dewpoint: 6.0°C (43°F) [RH = 100%]
Pressure (altimeter): 29.82 inches Hg (1010.0 mb)
Winds: from the NW (320 degrees) at 2 MPH (2 knots; 1.0 m/s)
Visibility: 1.55 miles (2.49 km)
Ceiling: 3000 feet AGL
Clouds: scattered clouds at 1000 feet AGL
broken clouds at 3000 feet AGL
overcast cloud deck at 7000 feet AGL
Weather: -RA BR  (light rain, mist)

METAR text: LYPG 220900Z VRB02KT 2000 RA BR FEW007 BKN030 OVC070 06/06 Q1010 NOSIG
Conditions at: LYPG (PODGORICA(TITOGR, CS) observed 0900 UTC 22 January 2019
Temperature: 6.0°C (43°F)
Dewpoint: 6.0°C (43°F) [RH = 100%]
Pressure (altimeter): 29.82 inches Hg (1010.0 mb)
Winds: variable direction winds at 2 MPH (2 knots; 1.0 m/s)
Visibility: 1.24 miles (2.00 km)
Ceiling: 3000 feet AGL
Clouds: few clouds at 700 feet AGL
broken clouds at 3000 feet AGL
overcast cloud deck at 7000 feet AGL
Weather: RA BR  (moderate rain, mist)

METAR text: LYPG 220830Z VRB01KT 1800 RA BR FEW007 BKN030 OVC070 05/05 Q1010 NOSIG
Conditions at: LYPG (PODGORICA(TITOGR, CS) observed 0830 UTC 22 January 2019
Temperature: 5.0°C (41°F)
Dewpoint: 5.0°C (41°F) [RH = 100%]
Pressure (altimeter): 29.82 inches Hg (1010.0 mb)
Winds: variable direction winds at 1 MPH (1 knots; 0.5 m/s)
Visibility: 1.12 miles (1.80 km)
Ceiling: 3000 feet AGL
Clouds: few clouds at 700 feet AGL
broken clouds at 3000 feet AGL
overcast cloud deck at 7000 feet AGL
Weather: RA BR  (moderate rain, mist)

METAR text: LYPG 220800Z VRB02KT 1800 -RA BR FEW007 BKN033 OVC070 05/05 Q1011 NOSIG
Conditions at: LYPG (PODGORICA(TITOGR, CS) observed 0800 UTC 22 January 2019
Temperature: 5.0°C (41°F)
Dewpoint: 5.0°C (41°F) [RH = 100%]
Pressure (altimeter): 29.85 inches Hg (1011.0 mb)
Winds: variable direction winds at 2 MPH (2 knots; 1.0 m/s)
Visibility: 1.12 miles (1.80 km)
Ceiling: 3300 feet AGL
Clouds: few clouds at 700 feet AGL
broken clouds at 3300 feet AGL
overcast cloud deck at 7000 feet AGL
Weather: -RA BR  (light rain, mist)

METAR text: LYPG 220730Z VRB02KT 1000 R18/1600U R36/1400D -RA BR SCT007 BKN030 OVC070 05/05 Q1011 NOSIG
Conditions at: LYPG (PODGORICA(TITOGR, CS) observed 0730 UTC 22 January 2019
Temperature: 5.0°C (41°F)
Dewpoint: 5.0°C (41°F) [RH = 100%]
Pressure (altimeter): 29.85 inches Hg (1011.0 mb)
Winds: variable direction winds at 2 MPH (2 knots; 1.0 m/s)
Visibility: 0.62 miles (1.00 km)
Ceiling: 3000 feet AGL
Clouds: scattered clouds at 700 feet AGL
broken clouds at 3000 feet AGL
overcast cloud deck at 7000 feet AGL
Weather: -RA BR  (light rain, mist)

METAR text: LYPG 220700Z 00000KT 1200 R18/P2000N R36/2000N -RA BR SCT006 BKN033 OVC070 05/05 Q1010 NOSIG
Conditions at: LYPG (PODGORICA(TITOGR, CS) observed 0700 UTC 22 January 2019
Temperature: 5.0°C (41°F)
Dewpoint: 5.0°C (41°F) [RH = 100%]
Pressure (altimeter): 29.82 inches Hg (1010.0 mb)
Winds: calm
Visibility: 0.75 miles (1.21 km)
Ceiling: 3300 feet AGL
Clouds: scattered clouds at 600 feet AGL
broken clouds at 3300 feet AGL
overcast cloud deck at 7000 feet AGL
Weather: -RA BR  (light rain, mist)

METAR text: LYPG 220630Z VRB02KT 1200 R18/P2000N R36/2000N -RA BR SCT005 BKN033 OVC070 05/05 Q1011 NOSIG
Conditions at: LYPG (PODGORICA(TITOGR, CS) observed 0630 UTC 22 January 2019
Temperature: 5.0°C (41°F)
Dewpoint: 5.0°C (41°F) [RH = 100%]
Pressure (altimeter): 29.85 inches Hg (1011.0 mb)
Winds: variable direction winds at 2 MPH (2 knots; 1.0 m/s)
Visibility: 0.75 miles (1.21 km)
Ceiling: 3300 feet AGL
Clouds: scattered clouds at 500 feet AGL
broken clouds at 3300 feet AGL
overcast cloud deck at 7000 feet AGL
Weather: -RA BR  (light rain, mist)

METAR text: LYPG 220600Z VRB01KT 1200 R18/P2000N R36/P2000N -RA BR SCT005 BKN033 OVC070 05/05 Q1011 NOSIG
Conditions at: LYPG (PODGORICA(TITOGR, CS) observed 0600 UTC 22 January 2019
Temperature: 5.0°C (41°F)
Dewpoint: 5.0°C (41°F) [RH = 100%]
Pressure (altimeter): 29.85 inches Hg (1011.0 mb)
Winds: variable direction winds at 1 MPH (1 knots; 0.5 m/s)
Visibility: 0.75 miles (1.21 km)
Ceiling: 3300 feet AGL
Clouds: scattered clouds at 500 feet AGL
broken clouds at 3300 feet AGL
overcast cloud deck at 7000 feet AGL
Weather: -RA BR  (light rain, mist)

METAR text: LYPG 220530Z 08002KT 1500 -RA BR SCT005 BKN033 OVC070 05/05 Q1011 NOSIG
Conditions at: LYPG (PODGORICA(TITOGR, CS) observed 0530 UTC 22 January 2019
Temperature: 5.0°C (41°F)
Dewpoint: 5.0°C (41°F) [RH = 100%]
Pressure (altimeter): 29.85 inches Hg (1011.0 mb)
Winds: from the E (80 degrees) at 2 MPH (2 knots; 1.0 m/s)
Visibility: 0.93 miles (1.50 km)
Ceiling: 3300 feet AGL
Clouds: scattered clouds at 500 feet AGL
broken clouds at 3300 feet AGL
overcast cloud deck at 7000 feet AGL
Weather: -RA BR  (light rain, mist)

METAR text: LYPG 220500Z 11004KT 080V150 1500 -RA BR SCT005 BKN033 OVC070 05/05 Q1011 TEMPO SCT003
Conditions at: LYPG (PODGORICA(TITOGR, CS) observed 0500 UTC 22 January 2019
Temperature: 5.0°C (41°F)
Dewpoint: 5.0°C (41°F) [RH = 100%]
Pressure (altimeter): 29.85 inches Hg (1011.0 mb)
Winds: from the ESE (110 degrees) at 5 MPH (4 knots; 2.1 m/s)
Visibility: 0.93 miles (1.50 km)
Ceiling: 3300 feet AGL
Clouds: scattered clouds at 500 feet AGL
broken clouds at 3300 feet AGL
overcast cloud deck at 7000 feet AGL
Weather: -RA BR  (light rain, mist)

METAR text: LYPG 220430Z VRB02KT 1500 R18/P2000N R36/1400U -RA BR SCT005 BKN033 OVC070 05/05 Q1011 TEMPO SCT003
Conditions at: LYPG (PODGORICA(TITOGR, CS) observed 0430 UTC 22 January 2019
Temperature: 5.0°C (41°F)
Dewpoint: 5.0°C (41°F) [RH = 100%]
Pressure (altimeter): 29.85 inches Hg (1011.0 mb)
Winds: variable direction winds at 2 MPH (2 knots; 1.0 m/s)
Visibility: 0.93 miles (1.50 km)
Ceiling: 3300 feet AGL
Clouds: scattered clouds at 500 feet AGL
broken clouds at 3300 feet AGL
overcast cloud deck at 7000 feet AGL
Weather: -RA BR  (light rain, mist)

Forecast for: LYPG (PODGORICA(TITOGR, CS)
Text: TAF LYPG 231100Z 2312/2412 15009KT 9999 BKN030 TX10/2313Z TN03/2406Z
Forecast period: 1200 UTC 23 January 2019 to 1200 UTC 24 January 2019
Forecast type: FROM: standard forecast or significant change
Winds: from the SSE (150 degrees) at 10 MPH (9 knots; 4.6 m/s)
Visibility: 6 or more miles 10+ km)
Ceiling: 3000 feet AGL
Clouds: broken clouds at 3000 feet AGL
Weather: no significant weather forecast for this period
Text: PROB40
Forecast period: 2000 UTC 23 January 2019 to 0800 UTC 24 January 2019
Forecast type: TEMPORARY: The following changes expected for less than half the time period
Visibility: 0.93 miles (1.50 km)
Ceiling: unknown
Clouds: missing
Weather: BR  (mist)
Text: TEMPO 2312/23118 VRB15G25KT 3000 TSRA FEW027CB BKN034
Forecast period: 0500 to 0700 UTC 24 January 2019
Forecast type: TEMPORARY: The following changes expected for less than half the time period
Visibility: 0.37 miles (0.60 km)
Ceiling: unknown
Clouds: missing
Weather: FG  (fog)